sensor_id;sensor_type;location;lat;lon;timestamp;pressure;altitude;pressure_sealevel;temperature;humidity
5595;BME280;1003;48.002;7.788;2024-02-21T00:00:15;99915.88;;;4.68;100.00
5595;BME280;1003;48.002;7.788;2024-02-21T00:02:43;99914.31;;;4.71;100.00
5595;BME280;1003;48.002;7.788;2024-02-21T00:05:10;99915.25;;;4.75;100.00
5595;BME280;1003;48.002;7.788;2024-02-21T00:07:40;99904.72;;;4.85;100.00
5595;BME280;1003;48.002;7.788;2024-02-21T00:10:08;99909.03;;;4.92;100.00
5595;BME280;1003;48.002;7.788;2024-02-21T00:12:35;99900.81;;;4.96;100.00
5595;BME280;1003;48.002;7.788;2024-02-21T00:15:08;99897.50;;;4.96;100.00
5595;BME280;1003;48.002;7.788;2024-02-21T00:17:35;99908.34;;;4.99;100.00
5595;BME280;1003;48.002;7.788;2024-02-21T00:20:03;99906.75;;;5.02;100.00
5595;BME280;1003;48.002;7.788;2024-02-21T00:22:30;99905.97;;;5.04;100.00
5595;BME280;1003;48.002;7.788;2024-02-21T00:24:59;99914.50;;;5.12;100.00
5595;BME280;1003;48.002;7.788;2024-02-21T00:27:26;99904.53;;;5.12;100.00
5595;BME280;1003;48.002;7.788;2024-02-21T00:29:53;99912.91;;;5.16;100.00
5595;BME280;1003;48.002;7.788;2024-02-21T00:32:24;99910.41;;;5.16;100.00
5595;BME280;1003;48.002;7.788;2024-02-21T00:34:55;99907.13;;;5.17;100.00
5595;BME280;1003;48.002;7.788;2024-02-21T00:37:22;99903.75;;;5.15;100.00
5595;BME280;1003;48.002;7.788;2024-02-21T00:39:49;99902.16;;;5.17;100.00
5595;BME280;1003;48.002;7.788;2024-02-21T00:42:16;99906.31;;;5.18;100.00
5595;BME280;1003;48.002;7.788;2024-02-21T00:44:43;99914.78;;;5.24;100.00
5595;BME280;1003;48.002;7.788;2024-02-21T00:47:10;99913.19;;;5.28;100.00
5595;BME280;1003;48.002;7.788;2024-02-21T00:49:39;99913.19;;;5.28;100.00
5595;BME280;1003;48.002;7.788;2024-02-21T00:52:06;99919.88;;;5.29;100.00
5595;BME280;1003;48.002;7.788;2024-02-21T00:54:33;99914.84;;;5.28;100.00
5595;BME280;1003;48.002;7.788;2024-02-21T00:57:00;99909.91;;;5.29;100.00
5595;BME280;1003;48.002;7.788;2024-02-21T00:59:27;99896.63;;;5.30;100.00
5595;BME280;1003;48.002;7.788;2024-02-21T01:01:54;99895.78;;;5.30;100.00
5595;BME280;1003;48.002;7.788;2024-02-21T01:04:21;99898.31;;;5.31;100.00
5595;BME280;1003;48.002;7.788;2024-02-21T01:06:51;99894.16;;;5.32;100.00
5595;BME280;1003;48.002;7.788;2024-02-21T01:09:18;99890.06;;;5.34;100.00
5595;BME280;1003;48.002;7.788;2024-02-21T01:11:45;99886.78;;;5.36;100.00
5595;BME280;1003;48.002;7.788;2024-02-21T01:14:12;99889.28;;;5.36;100.00
5595;BME280;1003;48.002;7.788;2024-02-21T01:16:39;99893.56;;;5.42;100.00
5595;BME280;1003;48.002;7.788;2024-02-21T01:19:06;99877.84;;;5.44;100.00
5595;BME280;1003;48.002;7.788;2024-02-21T01:21:33;99872.97;;;5.50;100.00
5595;BME280;1003;48.002;7.788;2024-02-21T01:24:02;99863.97;;;5.57;100.00
5595;BME280;1003;48.002;7.788;2024-02-21T01:26:29;99869.81;;;5.59;100.00
5595;BME280;1003;48.002;7.788;2024-02-21T01:28:59;99860.72;;;5.60;100.00
5595;BME280;1003;48.002;7.788;2024-02-21T01:31:26;99859.91;;;5.61;100.00
5595;BME280;1003;48.002;7.788;2024-02-21T01:33:53;99866.63;;;5.65;100.00
5595;BME280;1003;48.002;7.788;2024-02-21T01:36:21;99856.63;;;5.65;100.00
5595;BME280;1003;48.002;7.788;2024-02-21T01:38:49;99850.81;;;5.64;100.00
5595;BME280;1003;48.002;7.788;2024-02-21T01:41:17;99840.06;;;5.65;100.00
5595;BME280;1003;48.002;7.788;2024-02-21T01:43:44;99831.69;;;5.65;100.00
5595;BME280;1003;48.002;7.788;2024-02-21T01:46:11;99835.00;;;5.62;100.00
5595;BME280;1003;48.002;7.788;2024-02-21T01:48:39;99828.34;;;5.63;100.00
5595;BME280;1003;48.002;7.788;2024-02-21T01:51:06;99827.41;;;5.58;100.00
5595;BME280;1003;48.002;7.788;2024-02-21T01:53:37;99828.25;;;5.58;100.00
5595;BME280;1003;48.002;7.788;2024-02-21T01:56:06;99824.81;;;5.53;100.00
5595;BME280;1003;48.002;7.788;2024-02-21T01:58:37;99819.78;;;5.50;100.00
5595;BME280;1003;48.002;7.788;2024-02-21T02:01:06;99812.34;;;5.53;100.00
5595;BME280;1003;48.002;7.788;2024-02-21T02:03:33;99817.44;;;5.58;100.00
5595;BME280;1003;48.002;7.788;2024-02-21T02:06:00;99810.78;;;5.58;100.00
5595;BME280;1003;48.002;7.788;2024-02-21T02:08:28;99807.47;;;5.59;100.00
5595;BME280;1003;48.002;7.788;2024-02-21T02:10:55;99801.84;;;5.68;100.00
5595;BME280;1003;48.002;7.788;2024-02-21T02:13:22;99797.78;;;5.71;100.00
5595;BME280;1003;48.002;7.788;2024-02-21T02:15:50;99801.97;;;5.74;100.00
5595;BME280;1003;48.002;7.788;2024-02-21T02:18:19;99807.78;;;5.74;100.00
5595;BME280;1003;48.002;7.788;2024-02-21T02:20:47;99808.72;;;5.79;100.00
5595;BME280;1003;48.002;7.788;2024-02-21T02:23:24;99823.84;;;5.87;100.00
5595;BME280;1003;48.002;7.788;2024-02-21T02:25:51;99822.09;;;5.83;100.00
5595;BME280;1003;48.002;7.788;2024-02-21T02:28:19;99827.06;;;5.82;100.00
5595;BME280;1003;48.002;7.788;2024-02-21T02:30:46;99818.72;;;5.81;100.00
5595;BME280;1003;48.002;7.788;2024-02-21T02:33:14;99815.25;;;5.73;100.00
5595;BME280;1003;48.002;7.788;2024-02-21T02:35:43;99811.81;;;5.68;100.00
5595;BME280;1003;48.002;7.788;2024-02-21T02:38:10;99813.41;;;5.64;100.00
5595;BME280;1003;48.002;7.788;2024-02-21T02:40:40;99790.00;;;5.58;100.00
5595;BME280;1003;48.002;7.788;2024-02-21T02:43:07;99780.00;;;5.55;100.00
5595;BME280;1003;48.002;7.788;2024-02-21T02:45:34;99776.56;;;5.49;100.00
5595;BME280;1003;48.002;7.788;2024-02-21T02:48:02;99779.91;;;5.51;100.00
5595;BME280;1003;48.002;7.788;2024-02-21T02:50:30;99773.19;;;5.47;100.00
5595;BME280;1003;48.002;7.788;2024-02-21T02:52:56;99770.66;;;5.44;100.00
5595;BME280;1003;48.002;7.788;2024-02-21T02:55:23;99780.63;;;5.44;100.00
5595;BME280;1003;48.002;7.788;2024-02-21T02:57:53;99781.41;;;5.43;100.00
5595;BME280;1003;48.002;7.788;2024-02-21T03:00:22;99772.00;;;5.29;100.00
5595;BME280;1003;48.002;7.788;2024-02-21T03:02:49;99768.19;;;5.07;100.00
5595;BME280;1003;48.002;7.788;2024-02-21T03:05:18;99768.00;;;4.97;100.00
5595;BME280;1003;48.002;7.788;2024-02-21T03:07:46;99757.91;;;4.91;100.00
5595;BME280;1003;48.002;7.788;2024-02-21T03:10:14;99746.19;;;4.87;100.00
5595;BME280;1003;48.002;7.788;2024-02-21T03:12:42;99737.75;;;4.82;100.00
5595;BME280;1003;48.002;7.788;2024-02-21T03:15:10;99721.06;;;4.78;100.00
5595;BME280;1003;48.002;7.788;2024-02-21T03:17:37;99708.56;;;4.75;100.00
5595;BME280;1003;48.002;7.788;2024-02-21T03:20:06;99703.56;;;4.73;100.00
5595;BME280;1003;48.002;7.788;2024-02-21T03:22:35;99707.72;;;4.74;100.00
5595;BME280;1003;48.002;7.788;2024-02-21T03:25:02;99706.09;;;4.75;100.00
5595;BME280;1003;48.002;7.788;2024-02-21T03:27:29;99700.22;;;4.73;100.00
5595;BME280;1003;48.002;7.788;2024-02-21T03:29:56;99683.53;;;4.69;100.00
5595;BME280;1003;48.002;7.788;2024-02-21T03:32:25;99682.66;;;4.67;100.00
5595;BME280;1003;48.002;7.788;2024-02-21T03:34:53;99682.59;;;4.64;100.00
5595;BME280;1003;48.002;7.788;2024-02-21T03:37:20;99670.78;;;4.55;100.00
5595;BME280;1003;48.002;7.788;2024-02-21T03:39:48;99662.97;;;4.40;100.00
5595;BME280;1003;48.002;7.788;2024-02-21T03:42:15;99637.91;;;4.31;100.00
5595;BME280;1003;48.002;7.788;2024-02-21T03:44:42;99649.31;;;4.22;100.00
5595;BME280;1003;48.002;7.788;2024-02-21T03:47:09;99648.34;;;4.16;100.00
5595;BME280;1003;48.002;7.788;2024-02-21T03:49:38;99639.03;;;4.09;100.00
5595;BME280;1003;48.002;7.788;2024-02-21T03:52:06;99631.38;;;4.00;100.00
5595;BME280;1003;48.002;7.788;2024-02-21T03:54:33;99622.16;;;3.95;100.00
5595;BME280;1003;48.002;7.788;2024-02-21T03:57:00;99614.63;;;3.92;100.00
5595;BME280;1003;48.002;7.788;2024-02-21T03:59:28;99603.00;;;3.91;100.00
5595;BME280;1003;48.002;7.788;2024-02-21T04:01:55;99598.91;;;3.93;100.00
5595;BME280;1003;48.002;7.788;2024-02-21T04:04:22;99591.47;;;3.93;100.00
5595;BME280;1003;48.002;7.788;2024-02-21T04:06:51;99581.53;;;3.95;100.00
5595;BME280;1003;48.002;7.788;2024-02-21T04:09:18;99579.03;;;3.93;100.00
5595;BME280;1003;48.002;7.788;2024-02-21T04:11:45;99562.56;;;3.99;100.00
5595;BME280;1003;48.002;7.788;2024-02-21T04:14:13;99536.22;;;4.08;100.00
5595;BME280;1003;48.002;7.788;2024-02-21T04:16:40;99524.84;;;4.19;100.00
5595;BME280;1003;48.002;7.788;2024-02-21T04:19:07;99516.56;;;4.19;100.00
5595;BME280;1003;48.002;7.788;2024-02-21T04:21:34;99509.03;;;4.16;100.00
5595;BME280;1003;48.002;7.788;2024-02-21T04:24:03;99501.56;;;4.16;100.00
5595;BME280;1003;48.002;7.788;2024-02-21T04:26:31;99486.69;;;4.17;100.00
5595;BME280;1003;48.002;7.788;2024-02-21T04:28:58;99477.56;;;4.18;100.00
5595;BME280;1003;48.002;7.788;2024-02-21T04:31:25;99482.44;;;4.13;100.00
5595;BME280;1003;48.002;7.788;2024-02-21T04:33:52;99483.44;;;4.21;100.00
5595;BME280;1003;48.002;7.788;2024-02-21T04:36:19;99492.59;;;4.22;100.00
5595;BME280;1003;48.002;7.788;2024-02-21T04:38:46;99485.00;;;4.16;100.00
5595;BME280;1003;48.002;7.788;2024-02-21T04:41:14;99483.16;;;4.08;100.00
5595;BME280;1003;48.002;7.788;2024-02-21T04:43:42;99484.81;;;4.07;100.00
5595;BME280;1003;48.002;7.788;2024-02-21T04:46:09;99483.97;;;4.07;100.00
5595;BME280;1003;48.002;7.788;2024-02-21T04:48:36;99492.25;;;4.06;100.00
5595;BME280;1003;48.002;7.788;2024-02-21T04:51:04;99479.81;;;4.06;100.00
5595;BME280;1003;48.002;7.788;2024-02-21T04:53:31;99476.41;;;4.02;100.00
5595;BME280;1003;48.002;7.788;2024-02-21T04:55:58;99460.50;;;3.94;100.00
5595;BME280;1003;48.002;7.788;2024-02-21T04:58:26;99453.75;;;3.88;100.00
5595;BME280;1003;48.002;7.788;2024-02-21T05:00:54;99444.56;;;3.84;100.00
5595;BME280;1003;48.002;7.788;2024-02-21T05:03:21;99407.22;;;3.83;100.00
5595;BME280;1003;48.002;7.788;2024-02-21T05:05:48;99381.59;;;3.85;100.00
5595;BME280;1003;48.002;7.788;2024-02-21T05:08:16;99382.50;;;3.89;100.00
5595;BME280;1003;48.002;7.788;2024-02-21T05:10:43;99369.97;;;3.84;100.00
5595;BME280;1003;48.002;7.788;2024-02-21T05:13:10;99367.59;;;3.90;100.00
5595;BME280;1003;48.002;7.788;2024-02-21T05:15:38;99366.69;;;3.87;100.00
5595;BME280;1003;48.002;7.788;2024-02-21T05:18:05;99367.59;;;3.90;100.00
5595;BME280;1003;48.002;7.788;2024-02-21T05:20:32;99355.25;;;3.93;100.00
5595;BME280;1003;48.002;7.788;2024-02-21T05:22:59;99352.69;;;3.92;100.00
5595;BME280;1003;48.002;7.788;2024-02-21T05:25:28;99342.63;;;3.86;100.00
5595;BME280;1003;48.002;7.788;2024-02-21T05:27:55;99350.88;;;3.83;100.00
5595;BME280;1003;48.002;7.788;2024-02-21T05:30:27;99359.22;;;3.87;100.00
5595;BME280;1003;48.002;7.788;2024-02-21T05:32:56;99343.53;;;3.89;100.00
5595;BME280;1003;48.002;7.788;2024-02-21T05:35:26;99335.41;;;3.98;100.00
5595;BME280;1003;48.002;7.788;2024-02-21T05:37:53;99333.91;;;4.05;100.00
5595;BME280;1003;48.002;7.788;2024-02-21T05:40:20;99330.75;;;4.15;100.00
5595;BME280;1003;48.002;7.788;2024-02-21T05:42:47;99315.88;;;4.16;100.00
5595;BME280;1003;48.002;7.788;2024-02-21T05:45:16;99320.88;;;4.19;100.00
5595;BME280;1003;48.002;7.788;2024-02-21T05:47:44;99329.25;;;4.25;100.00
5595;BME280;1003;48.002;7.788;2024-02-21T05:50:12;99330.88;;;4.22;100.00
5595;BME280;1003;48.002;7.788;2024-02-21T05:52:39;99337.59;;;4.25;100.00
5595;BME280;1003;48.002;7.788;2024-02-21T05:55:07;99330.22;;;4.31;100.00
5595;BME280;1003;48.002;7.788;2024-02-21T05:57:34;99334.28;;;4.28;100.00
5595;BME280;1003;48.002;7.788;2024-02-21T06:00:05;99336.00;;;4.30;100.00
5595;BME280;1003;48.002;7.788;2024-02-21T06:02:32;99339.47;;;4.40;100.00
5595;BME280;1003;48.002;7.788;2024-02-21T06:04:59;99349.41;;;4.38;100.00
5595;BME280;1003;48.002;7.788;2024-02-21T06:07:27;99359.25;;;4.32;100.00
5595;BME280;1003;48.002;7.788;2024-02-21T06:09:54;99361.75;;;4.32;100.00
5595;BME280;1003;48.002;7.788;2024-02-21T06:12:21;99360.94;;;4.33;100.00
5595;BME280;1003;48.002;7.788;2024-02-21T06:14:48;99359.38;;;4.38;100.00
5595;BME280;1003;48.002;7.788;2024-02-21T06:17:15;99366.16;;;4.47;100.00
5595;BME280;1003;48.002;7.788;2024-02-21T06:19:43;99361.97;;;4.44;100.00
5595;BME280;1003;48.002;7.788;2024-02-21T06:22:11;99360.81;;;4.27;100.00
5595;BME280;1003;48.002;7.788;2024-02-21T06:24:39;99365.53;;;4.12;100.00
5595;BME280;1003;48.002;7.788;2024-02-21T06:27:06;99375.19;;;3.98;100.00
5595;BME280;1003;48.002;7.788;2024-02-21T06:29:34;99374.97;;;3.87;100.00
5595;BME280;1003;48.002;7.788;2024-02-21T06:32:02;99378.13;;;3.77;100.00
5595;BME280;1003;48.002;7.788;2024-02-21T06:34:29;99374.59;;;3.67;100.00
5595;BME280;1003;48.002;7.788;2024-02-21T06:36:56;99381.97;;;3.63;100.00
5595;BME280;1003;48.002;7.788;2024-02-21T06:39:23;99379.25;;;3.52;100.00
5595;BME280;1003;48.002;7.788;2024-02-21T06:41:52;99374.13;;;3.45;100.00
5595;BME280;1003;48.002;7.788;2024-02-21T06:44:21;99381.56;;;3.45;100.00
5595;BME280;1003;48.002;7.788;2024-02-21T06:46:48;99380.81;;;3.49;100.00
5595;BME280;1003;48.002;7.788;2024-02-21T06:49:15;99383.50;;;3.58;100.00
5595;BME280;1003;48.002;7.788;2024-02-21T06:51:43;99380.44;;;3.69;100.00
5595;BME280;1003;48.002;7.788;2024-02-21T06:54:10;99371.53;;;3.81;100.00
5595;BME280;1003;48.002;7.788;2024-02-21T06:56:40;99361.91;;;3.98;100.00
5595;BME280;1003;48.002;7.788;2024-02-21T06:59:08;99365.53;;;4.12;100.00
5595;BME280;1003;48.002;7.788;2024-02-21T07:01:36;99351.66;;;4.25;100.00
5595;BME280;1003;48.002;7.788;2024-02-21T07:04:03;99353.63;;;4.42;100.00
5595;BME280;1003;48.002;7.788;2024-02-21T07:06:30;99348.13;;;4.60;100.00
5595;BME280;1003;48.002;7.788;2024-02-21T07:08:57;99356.69;;;4.76;100.00
5595;BME280;1003;48.002;7.788;2024-02-21T07:11:24;99353.53;;;4.88;100.00
5595;BME280;1003;48.002;7.788;2024-02-21T07:13:52;99362.09;;;5.04;100.00
5595;BME280;1003;48.002;7.788;2024-02-21T07:16:20;99373.91;;;5.17;100.00
5595;BME280;1003;48.002;7.788;2024-02-21T07:18:47;99389.81;;;5.26;100.00
5595;BME280;1003;48.002;7.788;2024-02-21T07:21:14;99404.06;;;5.35;100.00
5595;BME280;1003;48.002;7.788;2024-02-21T07:23:41;99420.84;;;5.47;100.00
5595;BME280;1003;48.002;7.788;2024-02-21T07:26:09;99443.47;;;5.59;100.00
5595;BME280;1003;48.002;7.788;2024-02-21T07:28:36;99465.28;;;5.72;100.00
5595;BME280;1003;48.002;7.788;2024-02-21T07:31:03;99481.28;;;5.88;100.00
5595;BME280;1003;48.002;7.788;2024-02-21T07:33:32;99500.59;;;6.01;100.00
5595;BME280;1003;48.002;7.788;2024-02-21T07:35:58;99524.94;;;6.16;100.00
5595;BME280;1003;48.002;7.788;2024-02-21T07:38:25;99533.47;;;6.32;100.00
5595;BME280;1003;48.002;7.788;2024-02-21T07:40:52;99559.34;;;6.40;100.00
5595;BME280;1003;48.002;7.788;2024-02-21T07:43:19;99576.16;;;6.52;100.00
5595;BME280;1003;48.002;7.788;2024-02-21T07:45:47;99591.03;;;6.44;100.00
5595;BME280;1003;48.002;7.788;2024-02-21T07:48:14;99598.03;;;6.09;100.00
5595;BME280;1003;48.002;7.788;2024-02-21T07:50:43;99605.19;;;5.89;100.00
5595;BME280;1003;48.002;7.788;2024-02-21T07:53:10;99604.91;;;5.71;100.00
5595;BME280;1003;48.002;7.788;2024-02-21T07:55:37;99599.00;;;5.66;100.00
5595;BME280;1003;48.002;7.788;2024-02-21T07:58:04;99588.31;;;5.73;100.00
5595;BME280;1003;48.002;7.788;2024-02-21T08:00:30;99577.03;;;5.95;100.00
5595;BME280;1003;48.002;7.788;2024-02-21T08:02:57;99554.94;;;6.19;100.00
5595;BME280;1003;48.002;7.788;2024-02-21T08:05:24;99550.19;;;6.39;100.00
5595;BME280;1003;48.002;7.788;2024-02-21T08:07:52;99559.50;;;6.52;100.00
5595;BME280;1003;48.002;7.788;2024-02-21T08:10:19;99563.94;;;6.73;100.00
5595;BME280;1003;48.002;7.788;2024-02-21T08:12:46;99580.84;;;6.99;100.00
5595;BME280;1003;48.002;7.788;2024-02-21T08:15:13;99597.31;;;6.80;100.00
5595;BME280;1003;48.002;7.788;2024-02-21T08:17:41;99593.88;;;6.72;100.00
5595;BME280;1003;48.002;7.788;2024-02-21T08:20:10;99593.16;;;6.82;100.00
5595;BME280;1003;48.002;7.788;2024-02-21T08:22:37;99592.72;;;7.17;100.00
5595;BME280;1003;48.002;7.788;2024-02-21T08:25:06;99587.16;;;7.47;100.00
5595;BME280;1003;48.002;7.788;2024-02-21T08:27:33;99599.00;;;7.68;100.00
5595;BME280;1003;48.002;7.788;2024-02-21T08:30:00;99625.78;;;7.78;100.00
5595;BME280;1003;48.002;7.788;2024-02-21T08:32:29;99641.88;;;8.07;100.00
5595;BME280;1003;48.002;7.788;2024-02-21T08:34:56;99720.44;;;8.22;100.00
5595;BME280;1003;48.002;7.788;2024-02-21T08:37:22;99728.84;;;8.33;100.00
5595;BME280;1003;48.002;7.788;2024-02-21T08:39:49;99719.72;;;8.35;100.00
5595;BME280;1003;48.002;7.788;2024-02-21T08:42:18;99729.75;;;8.36;100.00
5595;BME280;1003;48.002;7.788;2024-02-21T08:44:45;99728.16;;;8.46;100.00
5595;BME280;1003;48.002;7.788;2024-02-21T08:47:12;99728.22;;;8.54;100.00
5595;BME280;1003;48.002;7.788;2024-02-21T08:49:39;99730.00;;;8.67;100.00
5595;BME280;1003;48.002;7.788;2024-02-21T08:52:06;99717.53;;;8.81;100.00
5595;BME280;1003;48.002;7.788;2024-02-21T08:54:33;99714.97;;;8.75;100.00
5595;BME280;1003;48.002;7.788;2024-02-21T08:57:00;99711.69;;;8.82;100.00
5595;BME280;1003;48.002;7.788;2024-02-21T08:59:30;99712.53;;;8.87;100.00
5595;BME280;1003;48.002;7.788;2024-02-21T09:01:57;99700.91;;;8.95;100.00
5595;BME280;1003;48.002;7.788;2024-02-21T09:04:24;99703.41;;;8.97;100.00
5595;BME280;1003;48.002;7.788;2024-02-21T09:06:51;99700.97;;;9.13;100.00
5595;BME280;1003;48.002;7.788;2024-02-21T09:09:18;99699.38;;;9.32;100.00
5595;BME280;1003;48.002;7.788;2024-02-21T09:11:45;99701.84;;;9.31;100.00
5595;BME280;1003;48.002;7.788;2024-02-21T09:14:12;99693.56;;;9.45;100.00
5595;BME280;1003;48.002;7.788;2024-02-21T09:16:41;99705.34;;;9.69;100.00
5595;BME280;1003;48.002;7.788;2024-02-21T09:19:07;99702.00;;;9.92;100.00
5595;BME280;1003;48.002;7.788;2024-02-21T09:21:36;99703.69;;;9.87;100.00
5595;BME280;1003;48.002;7.788;2024-02-21T09:24:05;99707.06;;;10.12;100.00
5595;BME280;1003;48.002;7.788;2024-02-21T09:26:32;99704.53;;;10.16;100.00
5595;BME280;1003;48.002;7.788;2024-02-21T09:28:59;99708.72;;;10.33;100.00
5595;BME280;1003;48.002;7.788;2024-02-21T09:31:26;99711.25;;;10.45;100.00
5595;BME280;1003;48.002;7.788;2024-02-21T09:33:54;99712.09;;;10.45;100.00
5595;BME280;1003;48.002;7.788;2024-02-21T09:36:21;99711.19;;;10.82;100.00
5595;BME280;1003;48.002;7.788;2024-02-21T09:38:48;99717.81;;;11.02;100.00
5595;BME280;1003;48.002;7.788;2024-02-21T09:41:17;99704.31;;;11.23;100.00
5595;BME280;1003;48.002;7.788;2024-02-21T09:43:44;99702.78;;;10.89;100.00
5595;BME280;1003;48.002;7.788;2024-02-21T09:46:16;99706.88;;;11.08;100.00
5595;BME280;1003;48.002;7.788;2024-02-21T09:48:59;99715.38;;;10.80;100.00
5595;BME280;1003;48.002;7.788;2024-02-21T09:51:32;99711.16;;;10.94;100.00
5595;BME280;1003;48.002;7.788;2024-02-21T09:54:03;99702.63;;;11.32;100.00
5595;BME280;1003;48.002;7.788;2024-02-21T09:56:30;99687.38;;;11.54;100.00
5595;BME280;1003;48.002;7.788;2024-02-21T09:58:58;99670.50;;;11.70;100.00
5595;BME280;1003;48.002;7.788;2024-02-21T10:01:25;99662.06;;;11.76;100.00
5595;BME280;1003;48.002;7.788;2024-02-21T10:03:52;99658.81;;;11.62;100.00
5595;BME280;1003;48.002;7.788;2024-02-21T10:06:20;99652.75;;;11.95;100.00
5595;BME280;1003;48.002;7.788;2024-02-21T10:08:52;99639.22;;;12.02;100.00
5595;BME280;1003;48.002;7.788;2024-02-21T10:11:23;99640.94;;;11.98;100.00
5595;BME280;1003;48.002;7.788;2024-02-21T10:13:50;99635.00;;;12.07;100.00
5595;BME280;1003;48.002;7.788;2024-02-21T10:16:17;99637.38;;;12.22;100.00
5595;BME280;1003;48.002;7.788;2024-02-21T10:18:44;99638.31;;;12.12;100.00
5595;BME280;1003;48.002;7.788;2024-02-21T10:21:11;99643.22;;;12.24;100.00
5595;BME280;1003;48.002;7.788;2024-02-21T10:23:44;99643.03;;;12.43;100.00
5595;BME280;1003;48.002;7.788;2024-02-21T10:26:12;99640.31;;;12.63;100.00
5595;BME280;1003;48.002;7.788;2024-02-21T10:28:40;99636.69;;;12.86;100.00
5595;BME280;1003;48.002;7.788;2024-02-21T10:31:11;99629.81;;;12.96;100.00
5595;BME280;1003;48.002;7.788;2024-02-21T10:33:54;99626.22;;;13.16;100.00
5595;BME280;1003;48.002;7.788;2024-02-21T10:36:22;99621.34;;;13.03;100.00
5595;BME280;1003;48.002;7.788;2024-02-21T10:38:52;99623.63;;;13.22;100.00
5595;BME280;1003;48.002;7.788;2024-02-21T10:41:21;99630.44;;;13.15;100.00
5595;BME280;1003;48.002;7.788;2024-02-21T10:43:51;99617.66;;;13.27;100.00
5595;BME280;1003;48.002;7.788;2024-02-21T10:46:21;99609.75;;;13.52;100.00
5595;BME280;1003;48.002;7.788;2024-02-21T10:49:01;99607.63;;;13.24;100.00
5595;BME280;1003;48.002;7.788;2024-02-21T10:51:33;99609.34;;;13.18;100.00
5595;BME280;1003;48.002;7.788;2024-02-21T10:54:29;99610.88;;;13.31;100.00
5595;BME280;1003;48.002;7.788;2024-02-21T10:56:58;99610.09;;;13.27;100.00
5595;BME280;1003;48.002;7.788;2024-02-21T10:59:28;99623.56;;;13.26;100.00
5595;BME280;1003;48.002;7.788;2024-02-21T11:01:56;99615.88;;;13.35;100.00
5595;BME280;1003;48.002;7.788;2024-02-21T11:04:23;99610.66;;;13.45;100.00
5595;BME280;1003;48.002;7.788;2024-02-21T11:06:51;99614.91;;;13.43;100.00
5595;BME280;1003;48.002;7.788;2024-02-21T11:09:30;99612.81;;;13.71;100.00
5595;BME280;1003;48.002;7.788;2024-02-21T11:11:57;99610.28;;;13.71;100.00
5595;BME280;1003;48.002;7.788;2024-02-21T11:14:27;99599.78;;;13.93;100.00
5595;BME280;1003;48.002;7.788;2024-02-21T11:16:54;99595.44;;;14.02;100.00
5595;BME280;1003;48.002;7.788;2024-02-21T11:19:26;99588.75;;;13.99;100.00
5595;BME280;1003;48.002;7.788;2024-02-21T11:21:55;99589.63;;;13.97;100.00
5595;BME280;1003;48.002;7.788;2024-02-21T11:24:31;99581.75;;;14.13;100.00
5595;BME280;1003;48.002;7.788;2024-02-21T11:27:09;99578.31;;;14.17;100.00
5595;BME280;1003;48.002;7.788;2024-02-21T11:29:40;99578.91;;;14.30;100.00
5595;BME280;1003;48.002;7.788;2024-02-21T11:32:10;99570.06;;;14.53;100.00
5595;BME280;1003;48.002;7.788;2024-02-21T11:34:37;99548.25;;;14.47;100.00
5595;BME280;1003;48.002;7.788;2024-02-21T11:37:13;99537.59;;;14.73;100.00
5595;BME280;1003;48.002;7.788;2024-02-21T11:39:43;99540.22;;;14.68;100.00
5595;BME280;1003;48.002;7.788;2024-02-21T11:42:10;99534.88;;;14.82;100.00
5595;BME280;1003;48.002;7.788;2024-02-21T11:44:39;99527.75;;;15.00;100.00
5595;BME280;1003;48.002;7.788;2024-02-21T11:47:08;99520.88;;;15.05;100.00
5595;BME280;1003;48.002;7.788;2024-02-21T11:49:38;99523.31;;;15.09;100.00
5595;BME280;1003;48.002;7.788;2024-02-21T11:52:06;99520.31;;;15.29;100.00
5595;BME280;1003;48.002;7.788;2024-02-21T11:54:34;99503.84;;;15.47;100.00
5595;BME280;1003;48.002;7.788;2024-02-21T11:57:02;99503.94;;;15.42;100.00
5595;BME280;1003;48.002;7.788;2024-02-21T11:59:31;99497.34;;;15.37;100.00
5595;BME280;1003;48.002;7.788;2024-02-21T12:01:59;99496.69;;;15.29;100.00
5595;BME280;1003;48.002;7.788;2024-02-21T12:04:27;99480.97;;;15.50;100.00
5595;BME280;1003;48.002;7.788;2024-02-21T12:06:54;99488.56;;;15.50;100.00
5595;BME280;1003;48.002;7.788;2024-02-21T12:09:23;99496.72;;;15.61;100.00
5595;BME280;1003;48.002;7.788;2024-02-21T12:11:58;99489.88;;;15.31;100.00
5595;BME280;1003;48.002;7.788;2024-02-21T12:14:29;99483.56;;;15.47;100.00
5595;BME280;1003;48.002;7.788;2024-02-21T12:16:56;99494.97;;;15.65;100.00
5595;BME280;1003;48.002;7.788;2024-02-21T12:19:23;99477.34;;;15.59;96.87
5595;BME280;1003;48.002;7.788;2024-02-21T12:21:50;99487.59;;;15.54;95.06
5595;BME280;1003;48.002;7.788;2024-02-21T12:24:22;99484.56;;;15.41;92.27
5595;BME280;1003;48.002;7.788;2024-02-21T12:26:50;99485.91;;;15.55;92.57
5595;BME280;1003;48.002;7.788;2024-02-21T12:29:17;99479.38;;;15.80;92.20
5595;BME280;1003;48.002;7.788;2024-02-21T12:31:46;99467.91;;;15.67;89.70
5595;BME280;1003;48.002;7.788;2024-02-21T12:34:15;99468.50;;;15.75;88.81
5595;BME280;1003;48.002;7.788;2024-02-21T12:36:43;99465.84;;;15.80;88.23
5595;BME280;1003;48.002;7.788;2024-02-21T12:39:10;99453.97;;;15.82;87.18
5595;BME280;1003;48.002;7.788;2024-02-21T12:41:38;99458.44;;;15.73;85.12
5595;BME280;1003;48.002;7.788;2024-02-21T12:44:06;99447.91;;;15.87;85.95
5595;BME280;1003;48.002;7.788;2024-02-21T12:46:34;99447.81;;;15.90;86.79
5595;BME280;1003;48.002;7.788;2024-02-21T12:49:03;99448.19;;;15.77;85.04
5595;BME280;1003;48.002;7.788;2024-02-21T12:51:30;99442.47;;;15.70;83.97
5595;BME280;1003;48.002;7.788;2024-02-21T12:53:57;99430.50;;;15.75;83.28
5595;BME280;1003;48.002;7.788;2024-02-21T12:56:24;99441.44;;;15.44;81.99
5595;BME280;1003;48.002;7.788;2024-02-21T12:58:53;99445.09;;;15.65;83.45
5595;BME280;1003;48.002;7.788;2024-02-21T13:01:20;99441.81;;;15.62;83.97
5595;BME280;1003;48.002;7.788;2024-02-21T13:03:47;99438.63;;;15.54;85.27
5595;BME280;1003;48.002;7.788;2024-02-21T13:06:15;99441.75;;;15.65;86.59
5595;BME280;1003;48.002;7.788;2024-02-21T13:08:44;99441.81;;;15.62;85.37
5595;BME280;1003;48.002;7.788;2024-02-21T13:11:12;99451.72;;;15.71;85.82
5595;BME280;1003;48.002;7.788;2024-02-21T13:13:39;99434.44;;;15.85;86.52
5595;BME280;1003;48.002;7.788;2024-02-21T13:16:07;99436.41;;;15.75;85.05
5595;BME280;1003;48.002;7.788;2024-02-21T13:18:35;99434.97;;;15.65;84.88
5595;BME280;1003;48.002;7.788;2024-02-21T13:21:04;99433.84;;;15.75;84.68
5595;BME280;1003;48.002;7.788;2024-02-21T13:23:32;99434.09;;;15.68;83.54